createdAt,value
2018-09-08T00:01:44.864Z,101406.03
2018-09-08T00:04:13.186Z,101409.96
2018-09-08T00:06:41.465Z,101406.84
2018-09-08T00:10:12.720Z,101400.92
2018-09-08T00:12:41.036Z,101401.33
2018-09-08T00:15:14.445Z,101398.30
2018-09-08T00:17:48.601Z,101400.56
2018-09-08T00:20:22.153Z,101392.41
2018-09-08T00:22:55.874Z,101398.84
2018-09-08T00:25:30.494Z,101402.78
2018-09-08T00:28:04.146Z,101412.39
2018-09-08T00:30:32.441Z,101407.31
2018-09-08T00:33:00.770Z,101410.52
2018-09-08T00:35:29.120Z,101409.33
2018-09-08T00:37:58.498Z,101411.52
2018-09-08T00:40:27.933Z,101408.09
2018-09-08T00:43:14.510Z,101406.00
2018-09-08T00:45:46.146Z,101419.16
2018-09-08T00:48:14.465Z,101409.13
2018-09-08T00:50:42.770Z,101413.02
2018-09-08T00:53:12.101Z,101408.50
2018-09-08T00:55:40.414Z,101402.44
2018-09-08T00:58:08.733Z,101404.27
2018-09-08T01:00:37.087Z,101401.37
2018-09-08T01:03:05.385Z,101395.52
2018-09-08T01:05:33.721Z,101402.07
2018-09-08T01:08:02.019Z,101391.42
2018-09-08T01:10:30.333Z,101402.98
2018-09-08T01:13:00.689Z,101414.34
2018-09-08T01:15:29.040Z,101401.03
2018-09-08T01:17:57.423Z,101400.20
2018-09-08T01:20:25.764Z,101399.64
2018-09-08T01:22:54.050Z,101399.77
2018-09-08T01:25:23.385Z,101392.72
2018-09-08T01:27:51.661Z,101394.26
2018-09-08T01:30:19.993Z,101399.22
2018-09-08T01:32:48.334Z,101400.75
2018-09-08T01:35:16.662Z,101397.17
2018-09-08T01:37:44.991Z,101397.53
2018-09-08T01:40:13.301Z,101395.95
2018-09-08T01:42:41.668Z,101396.46
2018-09-08T01:45:09.997Z,101392.29
2018-09-08T01:47:38.365Z,101385.95
2018-09-08T01:50:07.798Z,101381.39
2018-09-08T01:52:36.151Z,101377.36
2018-09-08T01:55:04.514Z,101373.42
2018-09-08T01:57:32.858Z,101369.37
2018-09-08T02:00:01.165Z,101371.38
2018-09-08T02:03:58.605Z,101371.64
2018-09-08T02:06:26.910Z,101368.40
2018-09-08T02:08:55.258Z,101371.50
2018-09-08T02:11:23.561Z,101369.95
2018-09-08T02:13:52.073Z,101379.13
2018-09-08T02:16:20.352Z,101380.58
2018-09-08T02:18:48.697Z,101381.52
2018-09-08T02:21:16.982Z,101386.79
2018-09-08T02:23:45.282Z,101384.98
2018-09-08T02:26:13.537Z,101398.84
2018-09-08T02:28:41.816Z,101390.94
2018-09-08T02:31:10.093Z,101396.45
2018-09-08T02:33:38.390Z,101393.13
2018-09-08T02:36:06.670Z,101399.31
2018-09-08T02:38:34.973Z,101402.06
2018-09-08T02:41:03.228Z,101403.73
2018-09-08T02:43:32.593Z,101407.92
2018-09-08T02:46:00.865Z,101396.23
2018-09-08T02:48:29.157Z,101402.91
2018-09-08T02:50:56.356Z,101399.41
2018-09-08T02:53:23.507Z,101398.84
2018-09-08T02:55:50.684Z,101393.36
2018-09-08T02:58:17.830Z,101395.27
2018-09-08T03:00:44.997Z,101396.59
2018-09-08T03:03:12.137Z,101397.64
2018-09-08T03:05:39.319Z,101390.98
2018-09-08T03:08:06.469Z,101400.74
2018-09-08T03:10:33.660Z,101407.05
2018-09-08T03:13:00.823Z,101391.90
2018-09-08T03:15:28.001Z,101394.17
2018-09-08T03:17:55.153Z,101391.31
2018-09-08T03:20:22.321Z,101388.55
2018-09-08T03:22:49.498Z,101391.67
2018-09-08T03:25:16.686Z,101390.95
2018-09-08T03:27:43.837Z,101391.66
2018-09-08T03:30:11.022Z,101397.62
2018-09-08T03:32:38.181Z,101396.45
2018-09-08T03:35:05.417Z,101400.38
2018-09-08T03:37:32.559Z,101400.50
2018-09-08T03:39:59.710Z,101410.26
2018-09-08T03:42:26.885Z,101412.05
2018-09-08T03:44:54.067Z,101410.51
2018-09-08T03:47:22.160Z,101421.59
2018-09-08T03:49:50.262Z,101425.07
2018-09-08T03:52:17.445Z,101418.97
2018-09-08T03:54:44.599Z,101428.09
2018-09-08T03:57:11.769Z,101425.70
2018-09-08T03:59:38.921Z,101433.22
2018-09-08T04:02:06.107Z,101432.50
2018-09-08T04:04:35.473Z,101422.58
2018-09-08T04:07:03.837Z,101425.22
2018-09-08T04:09:32.123Z,101416.61
2018-09-08T04:12:00.407Z,101419.59
2018-09-08T04:14:28.684Z,101415.20
2018-09-08T04:16:56.969Z,101406.70
2018-09-08T04:19:26.241Z,101406.81
2018-09-08T04:21:54.559Z,101418.17
2018-09-08T04:24:22.870Z,101416.13
2018-09-08T04:26:51.652Z,101425.70
2018-09-08T04:29:20.012Z,101423.42
2018-09-08T04:31:48.301Z,101416.98
2018-09-08T04:34:16.561Z,101420.54
2018-09-08T04:36:44.861Z,101422.20
2018-09-08T04:39:15.249Z,101424.23
2018-09-08T04:41:43.499Z,101435.22
2018-09-08T04:48:59.987Z,101446.05
2018-09-08T04:51:28.277Z,101447.25
2018-09-08T04:53:56.585Z,101443.30
2018-09-08T04:56:24.882Z,101444.27
2018-09-08T04:58:55.209Z,101440.44
2018-09-08T05:01:23.493Z,101446.19
2018-09-08T05:03:53.827Z,101439.38
2018-09-08T05:06:22.106Z,101450.13
2018-09-08T05:08:50.393Z,101447.42
2018-09-08T05:11:18.653Z,101445.52
2018-09-08T05:13:46.950Z,101450.14
2018-09-08T05:16:15.216Z,101449.91
2018-09-08T05:18:43.522Z,101450.75
2018-09-08T05:21:11.781Z,101457.42
2018-09-08T05:23:40.094Z,101460.19
2018-09-08T05:26:09.394Z,101459.11
2018-09-08T05:28:37.701Z,101452.91
2018-09-08T05:31:06.969Z,101446.56
2018-09-08T05:33:35.241Z,101446.69
2018-09-08T05:36:03.485Z,101451.70
2018-09-08T05:38:31.809Z,101459.44
2018-09-08T05:41:00.110Z,101453.59
2018-09-08T05:43:28.403Z,101449.42
2018-09-08T05:45:56.685Z,101459.28
2018-09-08T05:48:24.955Z,101451.66
2018-09-08T05:50:53.270Z,101448.98
2018-09-08T05:53:21.565Z,101456.66
2018-09-08T05:55:49.877Z,101444.70
2018-09-08T05:58:18.251Z,101458.23
2018-09-08T06:00:46.602Z,101467.91
2018-09-08T06:03:14.896Z,101466.34
2018-09-08T06:05:45.266Z,101468.64
2018-09-08T06:08:13.518Z,101477.45
2018-09-08T06:10:41.848Z,101477.97
2018-09-08T06:13:11.201Z,101476.26
2018-09-08T06:15:39.482Z,101486.55
2018-09-08T06:18:07.785Z,101477.64
2018-09-08T06:20:36.045Z,101478.66
2018-09-08T06:23:04.328Z,101491.07
2018-09-08T06:25:32.704Z,101486.20
2018-09-08T06:28:01.163Z,101482.75
2018-09-08T06:30:29.936Z,101490.64
2018-09-08T06:32:58.222Z,101500.16
2018-09-08T06:35:26.617Z,101490.84
2018-09-08T06:37:55.873Z,101499.50
2018-09-08T06:40:24.150Z,101505.20
2018-09-08T06:42:52.461Z,101508.70
2018-09-08T06:45:20.743Z,101508.79
2018-09-08T06:47:50.145Z,101516.62
2018-09-08T06:50:18.450Z,101508.91
2018-09-08T06:52:46.741Z,101516.09
2018-09-08T06:55:15.013Z,101526.45
2018-09-08T06:58:46.542Z,101526.38
2018-09-08T07:01:14.861Z,101523.27
2018-09-08T07:03:43.729Z,101512.27
2018-09-08T07:06:12.045Z,101514.80
2018-09-08T07:08:41.485Z,101521.86
2018-09-08T07:11:09.792Z,101505.56
2018-09-08T07:13:39.159Z,101502.94
2018-09-08T07:16:07.813Z,101503.37
2018-09-08T07:18:36.093Z,101503.11
2018-09-08T07:21:04.425Z,101498.63
2018-09-08T07:23:35.849Z,101509.75
2018-09-08T07:26:05.161Z,101507.07
2018-09-08T07:28:33.728Z,101522.95
2018-09-08T07:31:02.035Z,101513.03
2018-09-08T07:33:30.685Z,101511.16
2018-09-08T07:35:58.942Z,101504.73
2018-09-08T07:38:27.237Z,101515.56
2018-09-08T07:40:55.529Z,101517.28
2018-09-08T07:43:23.785Z,101527.96
2018-09-08T07:45:52.116Z,101539.63
2018-09-08T07:48:20.381Z,101542.84
2018-09-08T07:50:48.654Z,101541.91
2018-09-08T07:53:16.936Z,101547.73
2018-09-08T07:55:45.197Z,101544.50
2018-09-08T07:58:13.451Z,101561.55
2018-09-08T08:00:41.749Z,101562.23
2018-09-08T08:03:10.032Z,101557.34
2018-09-08T08:05:38.321Z,101567.09
2018-09-08T08:08:06.800Z,101567.14
2018-09-08T08:10:35.077Z,101561.99
2018-09-08T08:13:03.356Z,101561.77
2018-09-08T08:15:31.671Z,101561.73
2018-09-08T08:17:59.973Z,101559.53
2018-09-08T08:20:28.261Z,101559.07
2018-09-08T08:22:56.510Z,101555.23
2018-09-08T08:25:25.905Z,101550.58
2018-09-08T08:27:54.162Z,101548.66
2018-09-08T08:30:23.633Z,101552.51
2018-09-08T08:32:51.916Z,101571.77
2018-09-08T08:35:20.313Z,101564.36
2018-09-08T08:37:48.652Z,101582.39
2018-09-08T08:40:16.909Z,101576.67
2018-09-08T08:42:45.201Z,101577.58
2018-09-08T08:45:13.494Z,101576.84
2018-09-08T08:47:41.785Z,101594.53
2018-09-08T08:50:21.329Z,101581.73
2018-09-08T08:53:00.649Z,101582.40
2018-09-08T08:55:28.945Z,101593.98
2018-09-08T08:57:57.249Z,101593.44
2018-09-08T09:00:25.541Z,101598.63
2018-09-08T09:02:54.919Z,101592.35
2018-09-08T09:05:23.195Z,101606.08
2018-09-08T09:07:51.527Z,101594.05
2018-09-08T09:10:21.860Z,101603.53
2018-09-08T09:12:50.199Z,101612.32
2018-09-08T09:15:18.574Z,101603.79
2018-09-08T09:17:46.857Z,101604.14
2018-09-08T09:20:26.233Z,101609.25
2018-09-08T09:23:06.269Z,101607.38
2018-09-08T09:25:34.117Z,101603.72
2018-09-08T09:28:02.433Z,101605.04
2018-09-08T09:30:30.705Z,101602.91
2018-09-08T09:32:58.985Z,101614.29
2018-09-08T09:35:27.398Z,101610.00
2018-09-08T09:37:55.562Z,101621.92
2018-09-08T09:40:23.857Z,101616.20
2018-09-08T09:42:52.125Z,101621.14
2018-09-08T09:45:20.565Z,101623.36
2018-09-08T09:47:48.837Z,101621.81
2018-09-08T09:50:17.133Z,101633.03
2018-09-08T09:52:45.479Z,101623.41
2018-09-08T09:55:13.746Z,101618.91
2018-09-08T09:57:43.065Z,101619.88
2018-09-08T10:00:15.530Z,101633.57
2018-09-08T10:02:50.513Z,101629.86
2018-09-08T10:05:26.103Z,101622.20
2018-09-08T10:07:55.538Z,101627.88
2018-09-08T10:10:25.276Z,101635.34
2018-09-08T10:12:53.552Z,101626.70
2018-09-08T10:15:21.845Z,101624.41
2018-09-08T10:17:50.206Z,101631.45
2018-09-08T10:20:20.137Z,101626.34
2018-09-08T10:22:48.433Z,101624.59
2018-09-08T10:25:17.888Z,101624.83
2018-09-08T10:27:47.049Z,101623.00
2018-09-08T10:30:15.905Z,101620.39
2018-09-08T10:32:44.980Z,101622.82
2018-09-08T10:35:13.445Z,101635.41
2018-09-08T10:37:41.766Z,101633.00
2018-09-08T10:40:11.163Z,101627.08
2018-09-08T10:42:39.425Z,101627.27
2018-09-08T10:45:07.785Z,101634.48
2018-09-08T10:47:36.156Z,101633.41
2018-09-08T10:50:04.605Z,101620.80
2018-09-08T10:52:35.262Z,101622.90
2018-09-08T10:55:03.547Z,101636.92
2018-09-08T10:57:31.953Z,101628.66
2018-09-08T11:00:01.229Z,101640.25
2018-09-08T11:02:30.037Z,101646.91
2018-09-08T11:04:58.199Z,101643.34
2018-09-08T11:07:26.537Z,101638.88
2018-09-08T11:09:54.808Z,101651.70
2018-09-08T11:12:23.171Z,101647.27
2018-09-08T11:14:51.464Z,101645.03
2018-09-08T11:17:19.727Z,101649.16
2018-09-08T11:19:48.027Z,101656.32
2018-09-08T11:22:16.320Z,101655.96
2018-09-08T11:24:44.609Z,101653.00
2018-09-08T11:27:12.913Z,101646.33
2018-09-08T11:29:41.212Z,101642.50
2018-09-08T11:32:09.489Z,101653.66
2018-09-08T11:34:37.801Z,101652.38
2018-09-08T11:37:06.099Z,101663.27
2018-09-08T11:39:34.390Z,101671.63
2018-09-08T11:42:02.657Z,101686.88
2018-09-08T11:44:30.970Z,101671.97
2018-09-08T11:47:00.372Z,101651.05
2018-09-08T11:49:28.653Z,101675.47
2018-09-08T11:51:56.901Z,101659.33
2018-09-08T11:54:25.251Z,101668.98
2018-09-08T11:56:54.943Z,101680.61
2018-09-08T11:59:23.235Z,101669.94
2018-09-08T12:01:51.595Z,101689.94
2018-09-08T12:04:19.855Z,101684.43
2018-09-08T12:06:48.141Z,101682.23
2018-09-08T12:09:17.425Z,101678.13
2018-09-08T12:11:45.710Z,101686.26
2018-09-08T12:14:13.985Z,101677.41
2018-09-08T12:16:42.274Z,101680.63
2018-09-08T12:19:10.550Z,101698.75
2018-09-08T12:21:38.836Z,101696.77
2018-09-08T12:24:07.114Z,101688.91
2018-09-08T12:26:35.406Z,101694.89
2018-09-08T12:29:03.873Z,101700.72
2018-09-08T12:31:32.171Z,101703.56
2018-09-08T12:34:00.494Z,101680.86
2018-09-08T12:36:28.789Z,101707.55
2018-09-08T12:38:57.136Z,101710.19
2018-09-08T12:41:25.365Z,101714.44
2018-09-08T12:43:53.629Z,101709.18
2018-09-08T12:46:22.912Z,101707.19
2018-09-08T12:48:51.163Z,101710.04
2018-09-08T12:51:19.481Z,101720.17
2018-09-08T12:53:47.761Z,101713.53
2018-09-08T12:56:16.033Z,101714.20
2018-09-08T12:58:44.325Z,101709.84
2018-09-08T13:01:12.657Z,101712.49
2018-09-08T13:03:41.933Z,101729.73
2018-09-08T13:06:10.206Z,101719.94
2018-09-08T13:08:39.546Z,101717.91
2018-09-08T13:11:08.258Z,101719.40
2018-09-08T13:13:36.557Z,101723.03
2018-09-08T13:16:04.845Z,101716.44
2018-09-08T13:18:33.138Z,101713.44
2018-09-08T13:21:01.404Z,101715.53
2018-09-08T13:23:29.691Z,101707.02
2018-09-08T13:25:57.955Z,101699.53
2018-09-08T13:28:26.249Z,101711.87
2018-09-08T13:30:54.537Z,101718.84
2018-09-08T13:33:22.805Z,101717.84
2018-09-08T13:35:51.047Z,101715.70
2018-09-08T13:38:19.334Z,101727.81
2018-09-08T13:40:47.618Z,101728.17
2018-09-08T13:43:15.901Z,101741.28
2018-09-08T13:45:44.201Z,101738.81
2018-09-08T13:48:12.509Z,101735.96
2018-09-08T13:50:40.744Z,101741.80
2018-09-08T13:53:09.017Z,101742.11
2018-09-08T13:55:37.295Z,101732.14
2018-09-08T13:58:05.992Z,101734.49
2018-09-08T14:00:34.305Z,101749.74
2018-09-08T14:03:02.566Z,101733.16
2018-09-08T14:05:30.841Z,101736.65
2018-09-08T14:08:01.962Z,101735.13
2018-09-08T14:10:30.271Z,101749.63
2018-09-08T14:12:58.525Z,101740.92
2018-09-08T14:15:26.899Z,101737.48
2018-09-08T14:17:55.240Z,101735.80
2018-09-08T14:20:23.546Z,101733.04
2018-09-08T14:22:51.837Z,101729.56
2018-09-08T14:25:20.153Z,101734.00
2018-09-08T14:27:51.706Z,101738.31
2018-09-08T14:30:20.569Z,101758.05
2018-09-08T14:32:49.519Z,101738.46
2018-09-08T14:35:17.866Z,101738.12
2018-09-08T14:37:46.161Z,101747.43
2018-09-08T14:40:14.473Z,101743.11
2018-09-08T14:42:42.754Z,101758.09
2018-09-08T14:45:11.032Z,101755.44
2018-09-08T14:47:39.459Z,101742.65
2018-09-08T14:50:07.654Z,101745.33
2018-09-08T14:52:35.962Z,101748.44
2018-09-08T14:55:04.304Z,101753.75
2018-09-08T14:57:32.602Z,101751.79
2018-09-08T15:00:00.869Z,101760.08
2018-09-08T15:02:29.212Z,101753.77
2018-09-08T15:04:57.503Z,101750.77
2018-09-08T15:07:25.809Z,101755.41
2018-09-08T15:09:55.088Z,101757.23
2018-09-08T15:12:23.419Z,101760.73
2018-09-08T15:14:51.690Z,101761.08
2018-09-08T15:17:20.006Z,101757.77
2018-09-08T15:19:48.604Z,101756.69
2018-09-08T15:22:17.165Z,101745.61
2018-09-08T15:24:45.445Z,101757.31
2018-09-08T15:27:13.729Z,101753.59
2018-09-08T15:29:42.001Z,101753.99
2018-09-08T15:32:10.298Z,101764.77
2018-09-08T15:34:38.573Z,101764.58
2018-09-08T15:37:06.825Z,101758.09
2018-09-08T15:39:35.132Z,101763.88
2018-09-08T15:42:03.614Z,101778.06
2018-09-08T15:44:31.925Z,101766.66
2018-09-08T15:47:00.177Z,101772.11
2018-09-08T15:49:28.454Z,101771.05
2018-09-08T15:51:56.774Z,101776.37
2018-09-08T15:54:25.048Z,101768.89
2018-09-08T15:56:53.476Z,101766.39
2018-09-08T15:59:21.852Z,101767.70
2018-09-08T16:01:50.146Z,101784.03
2018-09-08T16:04:19.565Z,101781.86
2018-09-08T16:06:47.861Z,101774.70
2018-09-08T16:09:17.252Z,101784.22
2018-09-08T16:11:45.554Z,101779.38
2018-09-08T16:14:14.005Z,101785.61
2018-09-08T16:16:42.425Z,101780.06
2018-09-08T16:19:11.753Z,101770.34
2018-09-08T16:21:40.026Z,101774.80
2018-09-08T16:24:08.329Z,101776.34
2018-09-08T16:26:36.802Z,101778.66
2018-09-08T16:29:05.126Z,101786.05
2018-09-08T16:31:34.626Z,101794.32
2018-09-08T16:34:02.989Z,101789.03
2018-09-08T16:36:31.297Z,101795.28
2018-09-08T16:38:59.613Z,101797.81
2018-09-08T16:41:27.917Z,101789.86
2018-09-08T16:43:56.205Z,101805.37
2018-09-08T16:46:24.553Z,101795.83
2018-09-08T16:48:52.825Z,101797.35
2018-09-08T16:51:21.138Z,101800.03
2018-09-08T16:53:49.422Z,101799.48
2018-09-08T16:56:17.704Z,101807.30
2018-09-08T16:58:47.109Z,101808.74
2018-09-08T17:01:15.430Z,101815.39
2018-09-08T17:03:43.703Z,101812.73
2018-09-08T17:06:12.004Z,101815.94
2018-09-08T17:08:40.259Z,101803.20
2018-09-08T17:11:08.563Z,101816.47
2018-09-08T17:13:37.913Z,101813.83
2018-09-08T17:16:06.492Z,101818.00
2018-09-08T17:18:34.801Z,101813.74
2018-09-08T17:21:03.105Z,101814.16
2018-09-08T17:23:31.406Z,101822.25
2018-09-08T17:25:59.706Z,101817.70
2018-09-08T17:28:30.057Z,101814.72
2018-09-08T17:30:58.333Z,101806.45
2018-09-08T17:33:27.638Z,101819.06
2018-09-08T17:35:55.969Z,101819.42
2018-09-08T17:38:25.250Z,101820.62
2018-09-08T17:40:53.530Z,101820.04
2018-09-08T17:43:21.818Z,101818.06
2018-09-08T17:45:51.177Z,101815.56
2018-09-08T17:48:19.469Z,101820.13
2018-09-08T17:50:47.732Z,101827.88
2018-09-08T17:53:16.037Z,101829.53
2018-09-08T17:55:47.786Z,101834.48
2018-09-08T17:58:16.126Z,101837.39
2018-09-08T18:00:44.415Z,101841.70
2018-09-08T18:03:12.725Z,101847.30
2018-09-08T18:05:42.065Z,101849.45
2018-09-08T18:08:10.698Z,101849.14
2018-09-08T18:10:40.031Z,101854.09
2018-09-08T18:13:08.329Z,101855.73
2018-09-08T18:16:39.774Z,101856.45
2018-09-08T18:19:08.049Z,101858.42
2018-09-08T18:21:36.327Z,101866.64
2018-09-08T18:24:04.623Z,101859.91
2018-09-08T18:26:32.893Z,101861.45
2018-09-08T18:29:01.222Z,101862.39
2018-09-08T18:31:29.986Z,101863.27
2018-09-08T18:33:58.293Z,101863.11
2018-09-08T18:36:26.653Z,101867.09
2018-09-08T18:38:54.949Z,101871.70
2018-09-08T18:41:24.304Z,101871.21
2018-09-08T18:43:52.533Z,101875.30
2018-09-08T18:46:20.805Z,101873.93
2018-09-08T18:48:50.097Z,101879.42
2018-09-08T18:51:18.455Z,101885.39
2018-09-08T18:53:46.710Z,101882.14
2018-09-08T18:56:15.006Z,101880.97
2018-09-08T18:58:43.264Z,101881.34
2018-09-08T19:01:11.585Z,101874.08
2018-09-08T19:03:39.849Z,101869.91
2018-09-08T19:06:08.161Z,101874.66
2018-09-08T19:08:42.889Z,101875.59
2018-09-08T19:11:11.929Z,101872.26
2018-09-08T19:13:40.186Z,101872.81
2018-09-08T19:16:08.509Z,101871.16
2018-09-08T19:18:36.766Z,101872.14
2018-09-08T19:21:05.397Z,101874.06
2018-09-08T19:23:33.673Z,101870.66
2018-09-08T19:26:02.108Z,101870.79
2018-09-08T19:28:30.366Z,101872.06
2018-09-08T19:30:58.637Z,101873.73
2018-09-08T19:33:26.998Z,101868.09
2018-09-08T19:35:55.269Z,101869.95
2018-09-08T19:38:23.561Z,101869.38
2018-09-08T19:40:51.841Z,101871.66
2018-09-08T19:43:20.161Z,101867.20
2018-09-08T19:45:48.430Z,101869.51
2018-09-08T19:48:17.957Z,101870.00
2018-09-08T19:50:46.333Z,101867.95
2018-09-08T19:53:20.037Z,101871.02
2018-09-08T19:55:48.373Z,101871.67
2018-09-08T19:58:22.953Z,101867.28
2018-09-08T20:00:51.434Z,101868.34
2018-09-08T20:03:19.685Z,101868.07
2018-09-08T20:05:47.922Z,101873.26
2018-09-08T20:08:16.185Z,101871.55
2018-09-08T20:10:44.456Z,101871.67
2018-09-08T20:13:12.733Z,101878.63
2018-09-08T20:15:41.060Z,101871.06
2018-09-08T20:18:09.337Z,101872.27
2018-09-08T20:20:37.585Z,101864.48
2018-09-08T20:23:06.937Z,101863.34
2018-09-08T20:25:35.269Z,101863.27
2018-09-08T20:28:03.569Z,101864.59
2018-09-08T20:30:31.822Z,101860.73
2018-09-08T20:33:00.101Z,101861.27
2018-09-08T20:35:28.373Z,101860.23
2018-09-08T20:37:56.677Z,101856.38
2018-09-08T20:40:24.947Z,101855.41
2018-09-08T20:42:53.240Z,101851.92
2018-09-08T20:45:21.514Z,101859.79
2018-09-08T20:47:49.806Z,101853.77
2018-09-08T20:50:18.099Z,101855.17
2018-09-08T20:52:46.345Z,101859.14
2018-09-08T20:55:14.597Z,101853.98
2018-09-08T20:57:42.857Z,101858.74
2018-09-08T21:00:11.485Z,101857.39
2018-09-08T21:02:39.746Z,101858.72
2018-09-08T21:05:08.021Z,101857.35
2018-09-08T21:07:36.291Z,101869.48
2018-09-08T21:10:04.808Z,101871.64
2018-09-08T21:12:33.060Z,101874.13
2018-09-08T21:15:01.341Z,101870.92
2018-09-08T21:17:29.593Z,101878.66
2018-09-08T21:19:57.873Z,101878.87
2018-09-08T21:22:26.379Z,101877.55
2018-09-08T21:24:55.691Z,101880.63
2018-09-08T21:27:24.181Z,101875.80
2018-09-08T21:29:52.631Z,101879.98
2018-09-08T21:32:20.893Z,101876.44
2018-09-08T21:34:49.195Z,101874.43
2018-09-08T21:37:18.509Z,101878.02
2018-09-08T21:39:46.767Z,101872.26
2018-09-08T21:42:15.041Z,101872.34
2018-09-08T21:44:43.290Z,101870.08
2018-09-08T21:47:11.581Z,101868.63
2018-09-08T21:49:39.905Z,101869.69
2018-09-08T21:52:08.193Z,101872.09
2018-09-08T21:54:36.469Z,101867.94
2018-09-08T21:57:04.741Z,101875.92
2018-09-08T21:59:32.989Z,101872.44
2018-09-08T22:02:01.493Z,101872.30
2018-09-08T22:04:29.758Z,101865.77
2018-09-08T22:06:58.129Z,101863.52
2018-09-08T22:09:26.470Z,101865.56
2018-09-08T22:11:54.782Z,101864.71
2018-09-08T22:14:23.090Z,101867.31
2018-09-08T22:16:51.342Z,101859.80
2018-09-08T22:19:19.642Z,101859.48
2018-09-08T22:21:47.893Z,101859.87
2018-09-08T22:24:16.191Z,101860.36
2018-09-08T22:26:45.564Z,101866.04
2018-09-08T22:29:13.840Z,101863.34
2018-09-08T22:31:42.098Z,101860.61
2018-09-08T22:34:11.125Z,101861.59
2018-09-08T22:36:39.389Z,101860.76
2018-09-08T22:39:09.020Z,101860.21
2018-09-08T22:41:37.273Z,101864.44
2018-09-08T22:44:05.557Z,101862.97
2018-09-08T22:46:33.820Z,101860.27
2018-09-08T22:49:02.109Z,101862.08
2018-09-08T22:51:30.424Z,101858.55
2018-09-08T22:53:58.652Z,101865.91
2018-09-08T22:56:29.566Z,101869.18
2018-09-08T22:58:57.878Z,101866.30
2018-09-08T23:01:26.145Z,101869.67
2018-09-08T23:03:54.456Z,101866.84
2018-09-08T23:06:22.697Z,101872.56
2018-09-08T23:08:50.993Z,101875.91
2018-09-08T23:11:19.265Z,101878.44
2018-09-08T23:13:47.513Z,101875.45
2018-09-08T23:16:15.806Z,101873.84
2018-09-08T23:18:45.051Z,101875.64
2018-09-08T23:21:13.334Z,101875.35
2018-09-08T23:23:41.585Z,101890.38
2018-09-08T23:26:09.871Z,101888.58
2018-09-08T23:28:38.121Z,101885.98
2018-09-08T23:31:06.449Z,101887.83
2018-09-08T23:33:34.708Z,101888.33
2018-09-08T23:36:03.001Z,101882.51
2018-09-08T23:38:33.297Z,101890.28
2018-09-08T23:41:01.653Z,101887.64
2018-09-08T23:43:29.899Z,101884.20
2018-09-08T23:45:58.153Z,101893.22
2018-09-08T23:48:26.414Z,101882.95
2018-09-08T23:50:54.676Z,101883.63
2018-09-08T23:53:22.938Z,101881.23
2018-09-08T23:55:53.226Z,101883.78
2018-09-08T23:58:21.566Z,101882.75
